createdAt,value
2017-08-23T00:00:28.354Z,101119
2017-08-23T00:02:58.433Z,101114
2017-08-23T00:05:26.721Z,101112
2017-08-23T00:07:56.623Z,101114
2017-08-23T00:10:25.525Z,101112
2017-08-23T00:12:54.515Z,101110
2017-08-23T00:15:23.929Z,101111
2017-08-23T00:17:52.916Z,101113
2017-08-23T00:20:21.856Z,101104
2017-08-23T00:22:53.855Z,101105
2017-08-23T00:25:22.060Z,101113
2017-08-23T00:27:52.034Z,101112
2017-08-23T00:30:20.209Z,101115
2017-08-23T00:32:50.111Z,101116
2017-08-23T00:35:18.940Z,101111
2017-08-23T00:37:47.988Z,101116
2017-08-23T00:40:16.193Z,101116
2017-08-23T00:42:45.796Z,101113
2017-08-23T00:45:16.588Z,101094
2017-08-23T00:47:45.512Z,101109
2017-08-23T00:50:15.341Z,101104
2017-08-23T00:52:44.826Z,101101
2017-08-23T00:55:13.977Z,101091
2017-08-23T00:57:43.072Z,101089
2017-08-23T01:00:11.219Z,101088
2017-08-23T01:02:40.712Z,101089
2017-08-23T01:05:10.697Z,101084
2017-08-23T01:07:39.992Z,101086
2017-08-23T01:10:08.180Z,101089
2017-08-23T01:12:38.250Z,101076
2017-08-23T01:15:07.214Z,101086
2017-08-23T01:17:36.326Z,101086
2017-08-23T01:20:04.868Z,101086
2017-08-23T01:22:33.948Z,101076
2017-08-23T01:25:03.002Z,101085
2017-08-23T01:27:32.396Z,101086
2017-08-23T01:30:00.551Z,101075
2017-08-23T01:32:29.817Z,101075
2017-08-23T01:34:59.014Z,101085
2017-08-23T01:37:27.661Z,101083
2017-08-23T01:39:57.129Z,101073
2017-08-23T01:42:26.253Z,101082
2017-08-23T01:44:54.428Z,101081
2017-08-23T01:47:22.564Z,101076
2017-08-23T01:49:50.817Z,101081
2017-08-23T01:52:19.229Z,101076
2017-08-23T01:54:49.553Z,101077
2017-08-23T01:57:25.822Z,101078
2017-08-23T01:59:56.072Z,101073
2017-08-23T02:02:25.042Z,101079
2017-08-23T02:04:53.503Z,101075
2017-08-23T02:07:23.022Z,101069
2017-08-23T02:09:52.305Z,101079
2017-08-23T02:12:20.548Z,101076
2017-08-23T02:14:49.873Z,101078
2017-08-23T02:17:18.974Z,101073
2017-08-23T02:19:48.065Z,101072
2017-08-23T02:22:17.181Z,101072
2017-08-23T02:24:46.235Z,101070
2017-08-23T02:27:14.403Z,101056
2017-08-23T02:29:42.597Z,101059
2017-08-23T02:32:10.961Z,101060
2017-08-23T02:34:39.133Z,101066
2017-08-23T02:37:07.328Z,101067
2017-08-23T02:39:35.508Z,101065
2017-08-23T02:42:03.670Z,101071
2017-08-23T02:44:33.767Z,101068
2017-08-23T02:47:02.803Z,101055
2017-08-23T02:49:30.979Z,101060
2017-08-23T02:52:00.044Z,101057
2017-08-23T02:54:28.186Z,101058
2017-08-23T02:56:56.329Z,101052
2017-08-23T02:59:24.460Z,101049
2017-08-23T03:01:52.640Z,101050
2017-08-23T03:04:25.017Z,101042
2017-08-23T03:06:53.149Z,101041
2017-08-23T03:09:21.316Z,101042
2017-08-23T03:11:50.575Z,101034
2017-08-23T03:14:18.722Z,101029
2017-08-23T03:16:46.914Z,101024
2017-08-23T03:19:15.082Z,101026
2017-08-23T03:21:43.530Z,101023
2017-08-23T03:24:11.746Z,101034
2017-08-23T03:26:39.884Z,101031
2017-08-23T03:29:08.081Z,101028
2017-08-23T03:31:37.177Z,101025
2017-08-23T03:34:05.349Z,101029
2017-08-23T03:36:33.693Z,101026
2017-08-23T03:39:02.934Z,101034
2017-08-23T03:41:31.064Z,101025
2017-08-23T03:44:00.104Z,101024
2017-08-23T03:46:28.223Z,101027
2017-08-23T03:48:56.392Z,101018
2017-08-23T03:51:24.491Z,101022
2017-08-23T03:53:52.634Z,101018
2017-08-23T03:56:20.711Z,101019
2017-08-23T03:58:48.812Z,101027
2017-08-23T04:01:16.920Z,101019
2017-08-23T04:03:45.033Z,101028
2017-08-23T04:06:13.143Z,101029
2017-08-23T04:08:41.237Z,101020
2017-08-23T04:11:09.367Z,101022
2017-08-23T04:13:37.493Z,101017
2017-08-23T04:16:05.592Z,101013
2017-08-23T04:18:33.697Z,101013
2017-08-23T04:21:01.791Z,101009
2017-08-23T04:23:29.893Z,101002
2017-08-23T04:25:58.006Z,101004
2017-08-23T04:28:26.092Z,100995
2017-08-23T04:30:54.207Z,100993
2017-08-23T04:33:22.310Z,101002
2017-08-23T04:35:50.395Z,100995
2017-08-23T04:38:18.489Z,100988
2017-08-23T04:40:46.572Z,100980
2017-08-23T04:43:14.692Z,100997
2017-08-23T04:45:43.691Z,100988
2017-08-23T04:48:11.784Z,100989
2017-08-23T04:50:39.864Z,100997
2017-08-23T04:53:07.952Z,100993
2017-08-23T04:55:36.054Z,100994
2017-08-23T04:58:04.175Z,100997
2017-08-23T05:00:32.259Z,100995
2017-08-23T05:03:00.344Z,100989
2017-08-23T05:05:28.445Z,100990
2017-08-23T05:07:56.515Z,100991
2017-08-23T05:10:24.625Z,100989
2017-08-23T05:12:52.702Z,100997
2017-08-23T05:15:20.804Z,100996
2017-08-23T05:17:48.887Z,100999
2017-08-23T05:20:16.971Z,100987
2017-08-23T05:22:45.079Z,100994
2017-08-23T05:25:13.155Z,100999
2017-08-23T05:27:41.528Z,101006
2017-08-23T05:30:09.614Z,101000
2017-08-23T05:32:37.692Z,101005
2017-08-23T05:35:05.805Z,100994
2017-08-23T05:37:33.900Z,100990
2017-08-23T05:40:02.005Z,100986
2017-08-23T05:42:30.078Z,100995
2017-08-23T05:44:58.179Z,100998
2017-08-23T05:47:26.263Z,101007
2017-08-23T05:49:54.395Z,101002
2017-08-23T05:52:22.472Z,101006
2017-08-23T05:54:50.609Z,100999
2017-08-23T05:57:19.632Z,101013
2017-08-23T05:59:47.728Z,101009
2017-08-23T06:02:15.839Z,101003
2017-08-23T06:04:43.941Z,101007
2017-08-23T06:07:12.047Z,101000
2017-08-23T06:09:40.192Z,101004
2017-08-23T06:12:08.275Z,101002
2017-08-23T06:14:36.372Z,100996
2017-08-23T06:17:04.480Z,100997
2017-08-23T06:19:32.583Z,101004
2017-08-23T06:22:00.695Z,101002
2017-08-23T06:24:29.436Z,101000
2017-08-23T06:26:57.543Z,100990
2017-08-23T06:29:26.527Z,100990
2017-08-23T06:31:54.624Z,100981
2017-08-23T06:34:23.644Z,100986
2017-08-23T06:36:51.755Z,100986
2017-08-23T06:39:19.852Z,100990
2017-08-23T06:41:47.967Z,100991
2017-08-23T06:44:16.084Z,100988
2017-08-23T06:46:45.103Z,100986
2017-08-23T06:49:13.196Z,100980
2017-08-23T06:51:41.318Z,100980
2017-08-23T06:54:09.425Z,100985
2017-08-23T06:56:37.520Z,100988
2017-08-23T06:59:05.622Z,100978
2017-08-23T07:01:33.717Z,100983
2017-08-23T07:04:01.831Z,100982
2017-08-23T07:06:29.933Z,100985
2017-08-23T07:08:58.020Z,100996
2017-08-23T07:11:28.039Z,101006
2017-08-23T07:13:56.119Z,100996
2017-08-23T07:16:24.228Z,100989
2017-08-23T07:18:52.309Z,100989
2017-08-23T07:21:20.440Z,100990
2017-08-23T07:23:49.428Z,100991
2017-08-23T07:26:18.427Z,100994
2017-08-23T07:28:46.524Z,100999
2017-08-23T07:31:14.604Z,100996
2017-08-23T07:33:42.749Z,100992
2017-08-23T07:36:11.756Z,100999
2017-08-23T07:38:39.863Z,101003
2017-08-23T07:41:07.981Z,100997
2017-08-23T07:43:36.733Z,101002
2017-08-23T07:46:04.828Z,100997
2017-08-23T07:48:33.592Z,100989
2017-08-23T07:51:01.678Z,100978
2017-08-23T07:53:29.765Z,100985
2017-08-23T07:55:57.878Z,100973
2017-08-23T07:58:25.956Z,100975
2017-08-23T08:00:54.071Z,100964
2017-08-23T08:03:22.151Z,100968
2017-08-23T08:05:50.243Z,100972
2017-08-23T08:08:19.288Z,100967
2017-08-23T08:10:48.306Z,100968
2017-08-23T08:13:16.395Z,100971
2017-08-23T08:15:44.490Z,100974
2017-08-23T08:18:12.618Z,100981
2017-08-23T08:20:40.703Z,100975
2017-08-23T08:23:09.724Z,100976
2017-08-23T08:25:37.823Z,100976
2017-08-23T08:28:05.919Z,100979
2017-08-23T08:30:34.029Z,100967
2017-08-23T08:33:03.020Z,100960
2017-08-23T08:35:31.148Z,100963
2017-08-23T08:38:00.163Z,100962
2017-08-23T08:40:28.297Z,100954
2017-08-23T08:42:56.404Z,100972
2017-08-23T08:45:24.487Z,100976
2017-08-23T08:47:52.601Z,100967
2017-08-23T08:50:20.705Z,100968
2017-08-23T08:52:49.747Z,100967
2017-08-23T08:55:17.854Z,100972
2017-08-23T08:57:45.942Z,100971
2017-08-23T09:00:14.056Z,100977
2017-08-23T09:02:42.167Z,100966
2017-08-23T09:05:10.272Z,100967
2017-08-23T09:07:38.367Z,100971
2017-08-23T09:10:06.452Z,100962
2017-08-23T09:12:34.572Z,100966
2017-08-23T09:15:03.611Z,100962
2017-08-23T09:17:31.714Z,100970
2017-08-23T09:19:59.820Z,100971
2017-08-23T09:22:28.843Z,100967
2017-08-23T09:24:56.935Z,100961
2017-08-23T09:27:25.923Z,100956
2017-08-23T09:29:54.038Z,100957
2017-08-23T09:32:23.032Z,100958
2017-08-23T09:34:51.137Z,100961
2017-08-23T09:37:19.227Z,100961
2017-08-23T09:39:47.371Z,100967
2017-08-23T09:42:15.513Z,100956
2017-08-23T09:44:44.529Z,100951
2017-08-23T09:47:13.556Z,100951
2017-08-23T09:49:41.658Z,100959
2017-08-23T09:52:09.766Z,100951
2017-08-23T09:54:38.769Z,100952
2017-08-23T09:57:06.878Z,100959
2017-08-23T09:59:34.997Z,100960
2017-08-23T10:02:03.077Z,100957
2017-08-23T10:04:33.095Z,100945
2017-08-23T10:07:01.171Z,100946
2017-08-23T10:09:29.254Z,100952
2017-08-23T10:11:57.350Z,100961
2017-08-23T10:14:25.436Z,100962
2017-08-23T10:16:53.541Z,100965
2017-08-23T10:19:21.639Z,100963
2017-08-23T10:21:49.743Z,100963
2017-08-23T10:24:17.851Z,100947
2017-08-23T10:26:45.936Z,100942
2017-08-23T10:29:14.044Z,100941
2017-08-23T10:31:42.127Z,100945
2017-08-23T10:34:10.248Z,100943
2017-08-23T10:36:38.344Z,100936
2017-08-23T10:39:07.223Z,100935
2017-08-23T10:41:35.328Z,100939
2017-08-23T10:44:03.440Z,100941
2017-08-23T10:46:31.531Z,100944
2017-08-23T10:49:00.544Z,100949
2017-08-23T10:51:28.687Z,100934
2017-08-23T10:53:56.812Z,100940
2017-08-23T10:56:24.923Z,100938
2017-08-23T10:58:53.003Z,100937
2017-08-23T11:01:21.097Z,100930
2017-08-23T11:03:49.211Z,100932
2017-08-23T11:06:17.288Z,100928
2017-08-23T11:08:45.396Z,100936
2017-08-23T11:11:13.488Z,100922
2017-08-23T11:13:41.565Z,100928
2017-08-23T11:16:09.674Z,100906
2017-08-23T11:18:37.757Z,100908
2017-08-23T11:21:05.859Z,100895
2017-08-23T11:23:33.947Z,100901
2017-08-23T11:26:02.042Z,100892
2017-08-23T11:28:30.165Z,100888
2017-08-23T11:30:58.259Z,100895
2017-08-23T11:33:26.356Z,100888
2017-08-23T11:35:54.487Z,100881
2017-08-23T11:38:22.599Z,100878
2017-08-23T11:40:50.687Z,100879
2017-08-23T11:43:18.810Z,100885
2017-08-23T11:45:46.911Z,100887
2017-08-23T11:48:15.003Z,100888
2017-08-23T11:50:43.123Z,100888
2017-08-23T11:53:11.228Z,100893
2017-08-23T11:55:39.345Z,100893
2017-08-23T11:58:07.447Z,100889
2017-08-23T12:00:35.553Z,100887
2017-08-23T12:03:03.685Z,100882
2017-08-23T12:05:32.692Z,100880
2017-08-23T12:08:00.787Z,100868
2017-08-23T12:10:28.890Z,100863
2017-08-23T12:12:56.995Z,100861
2017-08-23T12:15:25.092Z,100866
2017-08-23T12:17:53.172Z,100870
2017-08-23T12:20:21.281Z,100870
2017-08-23T12:22:49.399Z,100864
2017-08-23T12:25:17.500Z,100862
2017-08-23T12:27:45.603Z,100853
2017-08-23T12:30:13.715Z,100855
2017-08-23T12:32:41.803Z,100850
2017-08-23T12:35:09.893Z,100839
2017-08-23T12:37:38.002Z,100854
2017-08-23T12:40:07.003Z,100853
2017-08-23T12:42:35.124Z,100846
2017-08-23T12:45:03.247Z,100845
2017-08-23T12:47:32.239Z,100843
2017-08-23T12:50:00.328Z,100839
2017-08-23T12:52:29.348Z,100833
2017-08-23T12:54:57.439Z,100833
2017-08-23T12:57:25.557Z,100832
2017-08-23T12:59:53.639Z,100831
2017-08-23T13:02:23.688Z,100835
2017-08-23T13:04:51.844Z,100844
2017-08-23T13:07:19.930Z,100832
2017-08-23T13:09:48.577Z,100836
2017-08-23T13:12:16.620Z,100838
2017-08-23T13:14:45.652Z,100843
2017-08-23T13:17:13.748Z,100844
2017-08-23T13:19:42.727Z,100832
2017-08-23T13:22:11.399Z,100833
2017-08-23T13:24:40.393Z,100822
2017-08-23T13:27:08.517Z,100822
2017-08-23T13:29:36.603Z,100823
2017-08-23T13:32:05.620Z,100821
2017-08-23T13:34:33.716Z,100810
2017-08-23T13:37:01.791Z,100814
2017-08-23T13:39:29.910Z,100809
2017-08-23T13:41:58.728Z,100811
2017-08-23T13:44:27.775Z,100816
2017-08-23T13:46:55.879Z,100814
2017-08-23T13:49:24.912Z,100810
2017-08-23T13:51:53.919Z,100812
2017-08-23T13:54:22.917Z,100819
2017-08-23T13:56:51.026Z,100811
2017-08-23T13:59:19.124Z,100803
2017-08-23T14:01:47.214Z,100797
2017-08-23T14:04:15.323Z,100798
2017-08-23T14:06:43.397Z,100810
2017-08-23T14:09:11.495Z,100802
2017-08-23T14:11:39.584Z,100798
2017-08-23T14:14:07.683Z,100803
2017-08-23T14:16:35.777Z,100803
2017-08-23T14:19:03.880Z,100802
2017-08-23T14:21:31.959Z,100797
2017-08-23T14:24:00.047Z,100795
2017-08-23T14:26:28.167Z,100788
2017-08-23T14:28:56.255Z,100797
2017-08-23T14:31:24.386Z,100787
2017-08-23T14:33:52.489Z,100785
2017-08-23T14:36:20.576Z,100784
2017-08-23T14:38:48.693Z,100775
2017-08-23T14:41:16.778Z,100786
2017-08-23T14:43:44.883Z,100775
2017-08-23T14:46:14.901Z,100769
2017-08-23T14:48:42.993Z,100772
2017-08-23T14:51:11.096Z,100767
2017-08-23T14:53:39.198Z,100762
2017-08-23T14:56:07.295Z,100764
2017-08-23T14:58:35.407Z,100766
2017-08-23T15:01:03.503Z,100759
2017-08-23T15:03:32.528Z,100754
2017-08-23T15:06:00.644Z,100745
2017-08-23T15:08:28.747Z,100752
2017-08-23T15:10:56.839Z,100745
2017-08-23T15:13:26.869Z,100747
2017-08-23T15:15:54.960Z,100743
2017-08-23T15:18:23.089Z,100742
2017-08-23T15:20:51.178Z,100726
2017-08-23T15:23:20.186Z,100733
2017-08-23T15:25:48.323Z,100730
2017-08-23T15:28:16.461Z,100731
2017-08-23T15:30:44.559Z,100731
2017-08-23T15:33:12.671Z,100731
2017-08-23T15:35:40.791Z,100729
2017-08-23T15:38:08.877Z,100729
2017-08-23T15:40:36.983Z,100722
2017-08-23T15:43:05.084Z,100714
2017-08-23T15:45:33.165Z,100721
2017-08-23T15:48:01.271Z,100727
2017-08-23T15:50:29.363Z,100724
2017-08-23T15:52:57.463Z,100731
2017-08-23T15:55:26.490Z,100727
2017-08-23T15:57:54.571Z,100718
2017-08-23T16:00:22.671Z,100718
2017-08-23T16:02:50.784Z,100717
2017-08-23T16:05:18.898Z,100721
2017-08-23T16:07:47.986Z,100715
2017-08-23T16:10:16.059Z,100707
2017-08-23T16:12:44.164Z,100707
2017-08-23T16:15:12.247Z,100716
2017-08-23T16:17:40.350Z,100713
2017-08-23T16:20:08.456Z,100717
2017-08-23T16:22:36.579Z,100712
2017-08-23T16:25:04.667Z,100705
2017-08-23T16:27:32.767Z,100705
2017-08-23T16:30:00.857Z,100708
2017-08-23T16:32:28.939Z,100710
2017-08-23T16:34:57.956Z,100710
2017-08-23T16:37:26.080Z,100710
2017-08-23T16:39:55.090Z,100713
2017-08-23T16:42:23.175Z,100704
2017-08-23T16:44:51.284Z,100712
2017-08-23T16:47:19.392Z,100706
2017-08-23T16:49:47.476Z,100694
2017-08-23T16:52:15.572Z,100698
2017-08-23T16:54:43.678Z,100699
2017-08-23T16:57:11.781Z,100693
2017-08-23T16:59:39.888Z,100685
2017-08-23T17:02:07.980Z,100677
2017-08-23T17:04:36.084Z,100689
2017-08-23T17:07:04.197Z,100679
2017-08-23T17:09:33.193Z,100671
2017-08-23T17:12:01.332Z,100679
2017-08-23T17:14:30.324Z,100685
2017-08-23T17:16:58.431Z,100680
2017-08-23T17:19:26.542Z,100684
2017-08-23T17:21:54.655Z,100685
2017-08-23T17:24:22.754Z,100678
2017-08-23T17:26:50.867Z,100681
2017-08-23T17:29:20.935Z,100684
2017-08-23T17:31:49.019Z,100696
2017-08-23T17:34:18.016Z,100681
2017-08-23T17:36:46.111Z,100685
2017-08-23T17:39:14.246Z,100681
2017-08-23T17:41:42.371Z,100668
2017-08-23T17:44:10.473Z,100670
2017-08-23T17:46:38.576Z,100667
2017-08-23T17:49:06.688Z,100671
2017-08-23T17:51:34.801Z,100671
2017-08-23T17:54:02.914Z,100664
2017-08-23T17:56:31.024Z,100672
2017-08-23T17:58:59.123Z,100672
2017-08-23T18:01:27.625Z,100669
2017-08-23T18:03:55.764Z,100678
2017-08-23T18:06:23.884Z,100677
2017-08-23T18:08:52.028Z,100671
2017-08-23T18:11:20.129Z,100676
2017-08-23T18:13:49.209Z,100676
2017-08-23T18:16:17.308Z,100675
2017-08-23T18:18:45.404Z,100683
2017-08-23T18:21:13.523Z,100678
2017-08-23T18:23:41.634Z,100685
2017-08-23T18:26:09.760Z,100672
2017-08-23T18:28:39.756Z,100676
2017-08-23T18:31:07.864Z,100680
2017-08-23T18:33:35.981Z,100678
2017-08-23T18:36:04.081Z,100682
2017-08-23T18:38:32.196Z,100686
2017-08-23T18:41:00.286Z,100674
2017-08-23T18:43:28.393Z,100682
2017-08-23T18:45:56.510Z,100676
2017-08-23T18:48:24.602Z,100673
2017-08-23T18:50:52.723Z,100678
2017-08-23T18:53:20.827Z,100680
2017-08-23T18:55:48.970Z,100674
2017-08-23T18:58:17.067Z,100681
2017-08-23T19:00:45.150Z,100683
2017-08-23T19:03:13.258Z,100685
2017-08-23T19:05:41.402Z,100681
2017-08-23T19:08:09.499Z,100682
2017-08-23T19:10:37.603Z,100682
2017-08-23T21:59:32.548Z,100664
2017-08-23T22:02:00.679Z,100675
2017-08-23T22:04:28.792Z,100670
2017-08-23T22:06:56.880Z,100672
2017-08-23T22:10:55.091Z,100674
2017-08-23T22:13:23.182Z,100668
2017-08-23T22:15:52.211Z,100675
2017-08-23T22:18:20.304Z,100675
2017-08-23T22:21:01.994Z,100681
2017-08-23T22:23:30.229Z,100682
2017-08-23T22:25:59.352Z,100652
2017-08-23T22:28:27.464Z,100685
2017-08-23T22:30:55.556Z,100692
2017-08-23T22:33:23.675Z,100701
2017-08-23T22:35:52.686Z,100702
2017-08-23T22:38:20.781Z,100698
2017-08-23T22:40:48.874Z,100702
2017-08-23T22:43:16.952Z,100699
2017-08-23T22:45:45.061Z,100705
2017-08-23T22:48:13.162Z,100703
2017-08-23T22:50:41.260Z,100709
2017-08-23T22:53:09.400Z,100707
2017-08-23T22:55:38.253Z,100713
2017-08-23T22:58:06.555Z,100721
2017-08-23T23:00:34.647Z,100715
2017-08-23T23:03:03.686Z,100705
2017-08-23T23:05:31.783Z,100711
2017-08-23T23:07:59.918Z,100712
2017-08-23T23:10:28.036Z,100724
2017-08-23T23:12:56.127Z,100716
2017-08-23T23:15:24.229Z,100716
2017-08-23T23:17:52.335Z,100720
2017-08-23T23:20:20.454Z,100724
2017-08-23T23:22:48.627Z,100738
2017-08-23T23:25:16.732Z,100729
2017-08-23T23:27:44.835Z,100731
2017-08-23T23:30:12.957Z,100744
2017-08-23T23:32:41.050Z,100739
2017-08-23T23:35:09.171Z,100740
2017-08-23T23:37:37.283Z,100738
2017-08-23T23:40:05.363Z,100744
2017-08-23T23:42:33.443Z,100744
2017-08-23T23:45:01.559Z,100750
2017-08-23T23:47:30.867Z,100745
2017-08-23T23:49:58.975Z,100737
2017-08-23T23:52:27.076Z,100738
2017-08-23T23:54:55.168Z,100746
2017-08-23T23:57:24.067Z,100740
2017-08-23T23:59:52.151Z,100738
